Accueil
METAR-TAF:

METAR-TAF

Aéroports :

Aéroport de Gênes-Christophe Colomb

Gênes, Italie

latitude: 44-25N, longitude: 008-51E, altitude: 2 m

Observation

Le bulletin a été fait il y a 19 minutes, à 04:20 UTC
Vent 10 kt de est/nord-est
Température 12°C
Humidité 62%
Pression 1020 hPa
Visibilité 10 km ou plus
pas de nuages en-dessous de 1500 mètres et pas de cumulonimbus.

METAR: LIMJ 220420Z 07010KT CAVOK 12/05 Q1020

Heure: 06:39 (04:39 UTC)

Prévision

Le bulletin a été fait il y a 5 heures et 39 minutes, à 23:00 UTC
Prévision valable du 22 à 00 UTC au 22 à 24 UTC
Vent 6 kt de nord/nord-est
Visibilité: 8000 m
Nuages épars à une hauteur de 7000 ft

TAF: LIMJ 212300Z 2200/2224 03006KT 8000 SCT070

Observations et prévisions météorologiques de plus de 4000 aéroports (messages METAR et TAF).

Les stations disponibles sont représentées par des disques jaunes et rouges sur la carte.

Passer la souris dessus pour voir le nom de la station.

Cliquer dessus pour voir les observations et prévisions météorologiques.

Pour changer de carte: cliquez sur les boutons verts avec une croix noire pour zoomer, sur le bouton vert avec un tiret pour effectuer un zoom arrière, ou sur les flèches vertes pour les cartes adjacentes.


METAR-TAF: